sensor_id;sensor_type;location;lat;lon;timestamp;P1;durP1;ratioP1;P2;durP2;ratioP2
24259;SDS011;12384;48.112;18.418;2022-08-01T00:02:06;18.27;;;16.87;;
24259;SDS011;12384;48.112;18.418;2022-08-01T00:04:37;18.77;;;17.37;;
24259;SDS011;12384;48.112;18.418;2022-08-01T00:07:06;20.53;;;18.93;;
24259;SDS011;12384;48.112;18.418;2022-08-01T00:09:35;38.63;;;35.40;;
24259;SDS011;12384;48.112;18.418;2022-08-01T00:12:04;40.00;;;36.67;;
24259;SDS011;12384;48.112;18.418;2022-08-01T00:14:34;37.30;;;34.20;;
24259;SDS011;12384;48.112;18.418;2022-08-01T00:17:03;45.20;;;41.30;;
24259;SDS011;12384;48.112;18.418;2022-08-01T00:19:33;46.57;;;42.37;;
24259;SDS011;12384;48.112;18.418;2022-08-01T00:22:01;43.33;;;39.73;;
24259;SDS011;12384;48.112;18.418;2022-08-01T00:24:31;47.03;;;42.93;;
24259;SDS011;12384;48.112;18.418;2022-08-01T00:26:59;34.80;;;32.20;;
24259;SDS011;12384;48.112;18.418;2022-08-01T00:29:28;34.80;;;32.10;;
24259;SDS011;12384;48.112;18.418;2022-08-01T00:32:19;35.60;;;32.90;;
24259;SDS011;12384;48.112;18.418;2022-08-01T00:34:47;36.90;;;34.10;;
24259;SDS011;12384;48.112;18.418;2022-08-01T00:37:16;40.97;;;37.57;;
24259;SDS011;12384;48.112;18.418;2022-08-01T00:39:45;36.50;;;33.80;;
24259;SDS011;12384;48.112;18.418;2022-08-01T00:42:14;33.40;;;30.90;;
24259;SDS011;12384;48.112;18.418;2022-08-01T00:44:43;35.83;;;32.90;;
24259;SDS011;12384;48.112;18.418;2022-08-01T00:47:12;39.00;;;35.80;;
24259;SDS011;12384;48.112;18.418;2022-08-01T00:49:42;11.03;;;10.20;;
24259;SDS011;12384;48.112;18.418;2022-08-01T00:52:11;34.13;;;31.27;;
24259;SDS011;12384;48.112;18.418;2022-08-01T00:54:40;11.63;;;10.63;;
24259;SDS011;12384;48.112;18.418;2022-08-01T00:57:10;13.07;;;12.13;;
24259;SDS011;12384;48.112;18.418;2022-08-01T00:59:40;11.40;;;10.60;;
24259;SDS011;12384;48.112;18.418;2022-08-01T01:02:09;9.53;;;8.93;;
24259;SDS011;12384;48.112;18.418;2022-08-01T01:04:42;10.90;;;10.20;;
24259;SDS011;12384;48.112;18.418;2022-08-01T01:07:13;10.70;;;10.10;;
24259;SDS011;12384;48.112;18.418;2022-08-01T01:09:49;39.57;;;36.50;;
24259;SDS011;12384;48.112;18.418;2022-08-01T01:12:25;7.77;;;7.27;;
24259;SDS011;12384;48.112;18.418;2022-08-01T01:15:04;9.03;;;8.43;;
24259;SDS011;12384;48.112;18.418;2022-08-01T01:17:37;7.03;;;6.57;;
24259;SDS011;12384;48.112;18.418;2022-08-01T01:20:20;6.53;;;6.03;;
24259;SDS011;12384;48.112;18.418;2022-08-01T01:22:55;8.57;;;8.07;;
24259;SDS011;12384;48.112;18.418;2022-08-01T01:25:46;11.47;;;10.70;;
24259;SDS011;12384;48.112;18.418;2022-08-01T01:28:27;8.70;;;8.20;;
24259;SDS011;12384;48.112;18.418;2022-08-01T01:31:03;13.30;;;12.50;;
24259;SDS011;12384;48.112;18.418;2022-08-01T01:33:36;49.20;;;45.13;;
24259;SDS011;12384;48.112;18.418;2022-08-01T01:36:13;37.17;;;34.13;;
24259;SDS011;12384;48.112;18.418;2022-08-01T01:38:45;14.53;;;13.50;;
24259;SDS011;12384;48.112;18.418;2022-08-01T01:41:15;47.17;;;43.47;;
24259;SDS011;12384;48.112;18.418;2022-08-01T01:43:46;31.23;;;28.83;;
24259;SDS011;12384;48.112;18.418;2022-08-01T01:46:17;34.30;;;31.70;;
24259;SDS011;12384;48.112;18.418;2022-08-01T01:48:50;14.80;;;13.80;;
24259;SDS011;12384;48.112;18.418;2022-08-01T01:51:21;20.70;;;19.20;;
24259;SDS011;12384;48.112;18.418;2022-08-01T01:53:52;15.53;;;14.53;;
24259;SDS011;12384;48.112;18.418;2022-08-01T01:56:21;8.40;;;7.80;;
24259;SDS011;12384;48.112;18.418;2022-08-01T01:58:53;29.00;;;17.63;;
24259;SDS011;12384;48.112;18.418;2022-08-01T02:01:27;47.30;;;16.37;;
24259;SDS011;12384;48.112;18.418;2022-08-01T02:04:19;12.20;;;10.07;;
24259;SDS011;12384;48.112;18.418;2022-08-01T02:06:51;9.50;;;8.80;;
24259;SDS011;12384;48.112;18.418;2022-08-01T02:09:21;9.17;;;8.67;;
24259;SDS011;12384;48.112;18.418;2022-08-01T02:11:53;12.47;;;11.67;;
24259;SDS011;12384;48.112;18.418;2022-08-01T02:14:33;11.23;;;10.30;;
24259;SDS011;12384;48.112;18.418;2022-08-01T02:17:05;18.47;;;17.17;;
24259;SDS011;12384;48.112;18.418;2022-08-01T02:19:34;14.30;;;13.30;;
24259;SDS011;12384;48.112;18.418;2022-08-01T02:22:04;39.60;;;36.70;;
24259;SDS011;12384;48.112;18.418;2022-08-01T02:24:39;39.67;;;36.67;;
24259;SDS011;12384;48.112;18.418;2022-08-01T02:27:14;8.43;;;7.77;;
24259;SDS011;12384;48.112;18.418;2022-08-01T02:29:58;3.00;;;2.70;;
24259;SDS011;12384;48.112;18.418;2022-08-01T02:32:31;3.20;;;2.90;;
24259;SDS011;12384;48.112;18.418;2022-08-01T02:35:05;4.23;;;3.83;;
24259;SDS011;12384;48.112;18.418;2022-08-01T02:37:38;3.63;;;3.33;;
24259;SDS011;12384;48.112;18.418;2022-08-01T02:40:12;4.17;;;3.77;;
24259;SDS011;12384;48.112;18.418;2022-08-01T02:42:43;4.00;;;3.60;;
24259;SDS011;12384;48.112;18.418;2022-08-01T02:45:16;3.73;;;3.37;;
24259;SDS011;12384;48.112;18.418;2022-08-01T02:47:48;7.53;;;3.40;;
24259;SDS011;12384;48.112;18.418;2022-08-01T02:50:19;3.73;;;3.37;;
24259;SDS011;12384;48.112;18.418;2022-08-01T02:52:51;3.83;;;3.43;;
24259;SDS011;12384;48.112;18.418;2022-08-01T02:55:22;5.40;;;3.97;;
24259;SDS011;12384;48.112;18.418;2022-08-01T02:57:51;4.83;;;4.33;;
24259;SDS011;12384;48.112;18.418;2022-08-01T03:00:26;3.50;;;3.20;;
24259;SDS011;12384;48.112;18.418;2022-08-01T03:02:59;3.30;;;3.00;;
24259;SDS011;12384;48.112;18.418;2022-08-01T03:05:29;4.20;;;3.33;;
24259;SDS011;12384;48.112;18.418;2022-08-01T03:07:59;3.50;;;3.20;;
24259;SDS011;12384;48.112;18.418;2022-08-01T03:10:38;3.77;;;3.40;;
24259;SDS011;12384;48.112;18.418;2022-08-01T03:13:10;4.57;;;3.47;;
24259;SDS011;12384;48.112;18.418;2022-08-01T03:15:41;5.03;;;4.57;;
24259;SDS011;12384;48.112;18.418;2022-08-01T03:18:13;6.50;;;4.87;;
24259;SDS011;12384;48.112;18.418;2022-08-01T03:20:43;5.07;;;4.27;;
24259;SDS011;12384;48.112;18.418;2022-08-01T03:23:14;4.67;;;4.27;;
24259;SDS011;12384;48.112;18.418;2022-08-01T03:25:44;6.87;;;3.90;;
24259;SDS011;12384;48.112;18.418;2022-08-01T03:28:13;6.33;;;5.73;;
24259;SDS011;12384;48.112;18.418;2022-08-01T03:30:45;5.67;;;5.07;;
24259;SDS011;12384;48.112;18.418;2022-08-01T03:33:18;4.93;;;4.50;;
24259;SDS011;12384;48.112;18.418;2022-08-01T03:35:48;6.70;;;5.10;;
24259;SDS011;12384;48.112;18.418;2022-08-01T03:38:21;5.80;;;4.73;;
24259;SDS011;12384;48.112;18.418;2022-08-01T03:40:53;4.83;;;4.10;;
24259;SDS011;12384;48.112;18.418;2022-08-01T03:43:26;5.57;;;5.07;;
24259;SDS011;12384;48.112;18.418;2022-08-01T03:46:03;3.80;;;3.50;;
24259;SDS011;12384;48.112;18.418;2022-08-01T03:48:39;3.43;;;3.17;;
24259;SDS011;12384;48.112;18.418;2022-08-01T03:51:10;4.27;;;3.87;;
24259;SDS011;12384;48.112;18.418;2022-08-01T03:53:42;4.80;;;4.40;;
24259;SDS011;12384;48.112;18.418;2022-08-01T03:56:12;3.97;;;3.67;;
24259;SDS011;12384;48.112;18.418;2022-08-01T03:58:45;5.40;;;3.97;;
24259;SDS011;12384;48.112;18.418;2022-08-01T04:01:15;6.43;;;3.97;;
24259;SDS011;12384;48.112;18.418;2022-08-01T04:03:47;3.90;;;3.60;;
24259;SDS011;12384;48.112;18.418;2022-08-01T04:06:17;3.57;;;3.27;;
24259;SDS011;12384;48.112;18.418;2022-08-01T04:08:46;4.77;;;4.37;;
24259;SDS011;12384;48.112;18.418;2022-08-01T04:11:23;7.13;;;6.43;;
24259;SDS011;12384;48.112;18.418;2022-08-01T04:13:53;7.37;;;6.63;;
24259;SDS011;12384;48.112;18.418;2022-08-01T04:16:23;6.63;;;5.97;;
24259;SDS011;12384;48.112;18.418;2022-08-01T04:18:53;10.40;;;8.17;;
24259;SDS011;12384;48.112;18.418;2022-08-01T04:21:23;8.07;;;7.27;;
24259;SDS011;12384;48.112;18.418;2022-08-01T04:23:55;7.10;;;6.27;;
24259;SDS011;12384;48.112;18.418;2022-08-01T04:26:27;6.67;;;5.97;;
24259;SDS011;12384;48.112;18.418;2022-08-01T04:28:58;6.37;;;5.77;;
24259;SDS011;12384;48.112;18.418;2022-08-01T04:31:30;6.53;;;5.93;;
24259;SDS011;12384;48.112;18.418;2022-08-01T04:34:02;6.80;;;6.20;;
24259;SDS011;12384;48.112;18.418;2022-08-01T04:36:35;5.90;;;5.23;;
24259;SDS011;12384;48.112;18.418;2022-08-01T04:39:04;7.13;;;5.97;;
24259;SDS011;12384;48.112;18.418;2022-08-01T04:41:34;5.77;;;5.27;;
24259;SDS011;12384;48.112;18.418;2022-08-01T04:44:04;4.53;;;4.13;;
24259;SDS011;12384;48.112;18.418;2022-08-01T04:46:33;6.10;;;5.60;;
24259;SDS011;12384;48.112;18.418;2022-08-01T04:49:06;5.23;;;4.73;;
24259;SDS011;12384;48.112;18.418;2022-08-01T04:51:35;5.37;;;4.70;;
24259;SDS011;12384;48.112;18.418;2022-08-01T04:54:04;5.63;;;4.23;;
24259;SDS011;12384;48.112;18.418;2022-08-01T04:56:34;7.93;;;4.67;;
24259;SDS011;12384;48.112;18.418;2022-08-01T04:59:03;7.50;;;4.60;;
24259;SDS011;12384;48.112;18.418;2022-08-01T05:01:49;4.67;;;4.27;;
24259;SDS011;12384;48.112;18.418;2022-08-01T05:04:19;4.73;;;4.20;;
24259;SDS011;12384;48.112;18.418;2022-08-01T05:06:49;7.30;;;3.90;;
24259;SDS011;12384;48.112;18.418;2022-08-01T05:09:22;4.20;;;3.57;;
24259;SDS011;12384;48.112;18.418;2022-08-01T05:11:56;3.40;;;3.10;;
24259;SDS011;12384;48.112;18.418;2022-08-01T05:14:26;3.30;;;3.00;;
24259;SDS011;12384;48.112;18.418;2022-08-01T05:16:55;3.73;;;2.87;;
24259;SDS011;12384;48.112;18.418;2022-08-01T05:19:25;10.43;;;9.73;;
24259;SDS011;12384;48.112;18.418;2022-08-01T05:21:54;10.33;;;9.63;;
24259;SDS011;12384;48.112;18.418;2022-08-01T05:24:26;11.10;;;10.50;;
24259;SDS011;12384;48.112;18.418;2022-08-01T05:26:57;11.07;;;10.27;;
24259;SDS011;12384;48.112;18.418;2022-08-01T05:29:29;13.40;;;12.50;;
24259;SDS011;12384;48.112;18.418;2022-08-01T05:31:58;12.00;;;11.07;;
24259;SDS011;12384;48.112;18.418;2022-08-01T05:34:28;13.30;;;12.27;;
24259;SDS011;12384;48.112;18.418;2022-08-01T05:36:57;13.00;;;12.20;;
24259;SDS011;12384;48.112;18.418;2022-08-01T05:39:26;12.70;;;11.80;;
24259;SDS011;12384;48.112;18.418;2022-08-01T05:41:55;12.83;;;11.93;;
24259;SDS011;12384;48.112;18.418;2022-08-01T05:44:24;13.90;;;12.57;;
24259;SDS011;12384;48.112;18.418;2022-08-01T05:46:53;14.67;;;13.67;;
24259;SDS011;12384;48.112;18.418;2022-08-01T05:49:21;15.30;;;14.10;;
24259;SDS011;12384;48.112;18.418;2022-08-01T05:51:52;14.60;;;13.70;;
24259;SDS011;12384;48.112;18.418;2022-08-01T05:54:21;15.82;;;14.63;;
24259;SDS011;12384;48.112;18.418;2022-08-01T05:56:50;15.07;;;14.07;;
24259;SDS011;12384;48.112;18.418;2022-08-01T05:59:18;16.25;;;15.10;;
24259;SDS011;12384;48.112;18.418;2022-08-01T06:01:47;17.05;;;15.60;;
24259;SDS011;12384;48.112;18.418;2022-08-01T06:04:16;16.15;;;15.15;;
24259;SDS011;12384;48.112;18.418;2022-08-01T06:06:45;16.92;;;15.82;;
24259;SDS011;12384;48.112;18.418;2022-08-01T06:09:15;16.63;;;15.63;;
24259;SDS011;12384;48.112;18.418;2022-08-01T06:11:44;17.92;;;16.52;;
24259;SDS011;12384;48.112;18.418;2022-08-01T06:14:13;18.55;;;17.17;;
24259;SDS011;12384;48.112;18.418;2022-08-01T06:16:41;17.50;;;16.30;;
24259;SDS011;12384;48.112;18.418;2022-08-01T06:19:10;18.17;;;16.90;;
24259;SDS011;12384;48.112;18.418;2022-08-01T06:21:39;18.67;;;17.25;;
24259;SDS011;12384;48.112;18.418;2022-08-01T06:24:08;19.00;;;17.80;;
24259;SDS011;12384;48.112;18.418;2022-08-01T06:26:38;21.15;;;19.75;;
24259;SDS011;12384;48.112;18.418;2022-08-01T06:29:07;20.60;;;19.20;;
24259;SDS011;12384;48.112;18.418;2022-08-01T06:31:37;14.52;;;13.57;;
24259;SDS011;12384;48.112;18.418;2022-08-01T06:34:06;12.85;;;12.05;;
24259;SDS011;12384;48.112;18.418;2022-08-01T06:36:35;14.57;;;13.68;;
24259;SDS011;12384;48.112;18.418;2022-08-01T06:39:04;13.63;;;12.48;;
24259;SDS011;12384;48.112;18.418;2022-08-01T06:41:32;10.75;;;9.95;;
24259;SDS011;12384;48.112;18.418;2022-08-01T06:44:02;14.25;;;13.45;;
24259;SDS011;12384;48.112;18.418;2022-08-01T06:46:32;13.57;;;11.95;;
24259;SDS011;12384;48.112;18.418;2022-08-01T06:49:02;12.82;;;11.35;;
24259;SDS011;12384;48.112;18.418;2022-08-01T06:51:31;20.88;;;19.42;;
24259;SDS011;12384;48.112;18.418;2022-08-01T06:53:59;4.22;;;3.83;;
24259;SDS011;12384;48.112;18.418;2022-08-01T06:56:28;6.22;;;5.55;;
24259;SDS011;12384;48.112;18.418;2022-08-01T06:58:57;5.78;;;5.00;;
24259;SDS011;12384;48.112;18.418;2022-08-01T07:01:29;6.07;;;5.35;;
24259;SDS011;12384;48.112;18.418;2022-08-01T07:04:00;6.97;;;6.10;;
24259;SDS011;12384;48.112;18.418;2022-08-01T07:06:30;7.72;;;7.18;;
24259;SDS011;12384;48.112;18.418;2022-08-01T07:08:59;7.82;;;7.03;;
24259;SDS011;12384;48.112;18.418;2022-08-01T07:11:36;9.40;;;8.73;;
24259;SDS011;12384;48.112;18.418;2022-08-01T07:14:05;8.70;;;8.10;;
24259;SDS011;12384;48.112;18.418;2022-08-01T07:16:35;8.85;;;8.15;;
24259;SDS011;12384;48.112;18.418;2022-08-01T07:19:04;8.37;;;7.60;;
24259;SDS011;12384;48.112;18.418;2022-08-01T07:21:32;8.57;;;7.87;;
24259;SDS011;12384;48.112;18.418;2022-08-01T07:24:05;9.30;;;8.50;;
24259;SDS011;12384;48.112;18.418;2022-08-01T07:26:39;9.52;;;8.82;;
24259;SDS011;12384;48.112;18.418;2022-08-01T07:29:20;9.10;;;8.50;;
24259;SDS011;12384;48.112;18.418;2022-08-01T07:31:52;12.55;;;11.73;;
24259;SDS011;12384;48.112;18.418;2022-08-01T07:34:22;10.85;;;10.15;;
24259;SDS011;12384;48.112;18.418;2022-08-01T07:36:52;12.73;;;11.75;;
24259;SDS011;12384;48.112;18.418;2022-08-01T07:39:21;10.68;;;9.88;;
24259;SDS011;12384;48.112;18.418;2022-08-01T07:41:50;11.02;;;10.27;;
24259;SDS011;12384;48.112;18.418;2022-08-01T07:44:33;11.10;;;10.30;;
24259;SDS011;12384;48.112;18.418;2022-08-01T07:47:04;11.13;;;10.43;;
24259;SDS011;12384;48.112;18.418;2022-08-01T07:49:33;13.27;;;12.25;;
24259;SDS011;12384;48.112;18.418;2022-08-01T07:52:06;10.50;;;9.90;;
24259;SDS011;12384;48.112;18.418;2022-08-01T07:54:35;11.55;;;10.65;;
24259;SDS011;12384;48.112;18.418;2022-08-01T07:57:04;13.27;;;12.38;;
24259;SDS011;12384;48.112;18.418;2022-08-01T07:59:33;13.63;;;12.73;;
24259;SDS011;12384;48.112;18.418;2022-08-01T08:02:04;12.23;;;11.43;;
24259;SDS011;12384;48.112;18.418;2022-08-01T08:04:33;13.23;;;12.43;;
24259;SDS011;12384;48.112;18.418;2022-08-01T08:07:02;10.95;;;10.35;;
24259;SDS011;12384;48.112;18.418;2022-08-01T08:09:31;10.95;;;10.05;;
24259;SDS011;12384;48.112;18.418;2022-08-01T08:12:04;16.25;;;14.80;;
24259;SDS011;12384;48.112;18.418;2022-08-01T08:14:34;13.48;;;12.55;;
24259;SDS011;12384;48.112;18.418;2022-08-01T08:17:04;13.90;;;13.10;;
24259;SDS011;12384;48.112;18.418;2022-08-01T08:19:33;14.35;;;12.82;;
24259;SDS011;12384;48.112;18.418;2022-08-01T08:22:05;12.88;;;12.07;;
24259;SDS011;12384;48.112;18.418;2022-08-01T08:24:35;15.60;;;14.47;;
24259;SDS011;12384;48.112;18.418;2022-08-01T08:27:11;15.48;;;14.48;;
24259;SDS011;12384;48.112;18.418;2022-08-01T08:29:40;14.13;;;13.23;;
24259;SDS011;12384;48.112;18.418;2022-08-01T08:32:10;20.23;;;18.95;;
24259;SDS011;12384;48.112;18.418;2022-08-01T08:34:39;15.23;;;14.23;;
24259;SDS011;12384;48.112;18.418;2022-08-01T08:37:08;20.75;;;18.83;;
24259;SDS011;12384;48.112;18.418;2022-08-01T08:39:38;10.27;;;9.50;;
24259;SDS011;12384;48.112;18.418;2022-08-01T08:42:08;17.10;;;15.90;;
24259;SDS011;12384;48.112;18.418;2022-08-01T08:44:40;17.40;;;16.02;;
24259;SDS011;12384;48.112;18.418;2022-08-01T08:47:14;17.95;;;16.55;;
24259;SDS011;12384;48.112;18.418;2022-08-01T08:49:46;20.17;;;18.38;;
24259;SDS011;12384;48.112;18.418;2022-08-01T08:52:17;18.67;;;17.40;;
24259;SDS011;12384;48.112;18.418;2022-08-01T08:54:48;19.80;;;18.17;;
24259;SDS011;12384;48.112;18.418;2022-08-01T08:57:19;17.83;;;16.63;;
24259;SDS011;12384;48.112;18.418;2022-08-01T08:59:49;18.55;;;17.35;;
24259;SDS011;12384;48.112;18.418;2022-08-01T09:02:22;18.88;;;17.20;;
24259;SDS011;12384;48.112;18.418;2022-08-01T09:04:51;19.83;;;18.33;;
24259;SDS011;12384;48.112;18.418;2022-08-01T09:07:21;18.90;;;17.45;;
24259;SDS011;12384;48.112;18.418;2022-08-01T09:09:52;19.80;;;18.23;;
24259;SDS011;12384;48.112;18.418;2022-08-01T09:12:21;20.08;;;18.77;;
24259;SDS011;12384;48.112;18.418;2022-08-01T09:14:50;19.90;;;18.33;;
24259;SDS011;12384;48.112;18.418;2022-08-01T09:17:22;19.38;;;18.08;;
24259;SDS011;12384;48.112;18.418;2022-08-01T09:19:51;19.67;;;18.38;;
24259;SDS011;12384;48.112;18.418;2022-08-01T09:22:24;21.15;;;19.40;;
24259;SDS011;12384;48.112;18.418;2022-08-01T09:24:57;20.75;;;19.02;;
24259;SDS011;12384;48.112;18.418;2022-08-01T09:27:27;20.25;;;18.85;;
24259;SDS011;12384;48.112;18.418;2022-08-01T09:30:07;20.58;;;19.08;;
24259;SDS011;12384;48.112;18.418;2022-08-01T09:35:33;20.42;;;18.95;;
24259;SDS011;12384;48.112;18.418;2022-08-01T09:38:13;20.75;;;19.05;;
24259;SDS011;12384;48.112;18.418;2022-08-01T09:40:44;20.70;;;19.35;;
24259;SDS011;12384;48.112;18.418;2022-08-01T09:43:14;20.33;;;18.65;;
24259;SDS011;12384;48.112;18.418;2022-08-01T09:45:44;6.85;;;6.30;;
24259;SDS011;12384;48.112;18.418;2022-08-01T09:48:16;14.68;;;13.55;;
24259;SDS011;12384;48.112;18.418;2022-08-01T09:50:51;19.00;;;17.60;;
24259;SDS011;12384;48.112;18.418;2022-08-01T09:53:20;18.30;;;16.90;;
24259;SDS011;12384;48.112;18.418;2022-08-01T09:56:07;20.60;;;19.15;;
24259;SDS011;12384;48.112;18.418;2022-08-01T09:58:50;21.52;;;20.17;;
24259;SDS011;12384;48.112;18.418;2022-08-01T10:01:25;22.35;;;20.83;;
24259;SDS011;12384;48.112;18.418;2022-08-01T10:04:07;18.58;;;17.23;;
24259;SDS011;12384;48.112;18.418;2022-08-01T10:06:39;20.15;;;18.85;;
24259;SDS011;12384;48.112;18.418;2022-08-01T10:09:11;21.83;;;20.17;;
24259;SDS011;12384;48.112;18.418;2022-08-01T10:11:41;25.52;;;23.42;;
24259;SDS011;12384;48.112;18.418;2022-08-01T10:14:11;23.52;;;21.83;;
24259;SDS011;12384;48.112;18.418;2022-08-01T10:16:44;22.83;;;21.40;;
24259;SDS011;12384;48.112;18.418;2022-08-01T10:19:19;24.20;;;22.35;;
24259;SDS011;12384;48.112;18.418;2022-08-01T10:21:51;24.05;;;22.58;;
24259;SDS011;12384;48.112;18.418;2022-08-01T10:24:26;19.67;;;18.45;;
24259;SDS011;12384;48.112;18.418;2022-08-01T10:27:01;11.20;;;10.43;;
24259;SDS011;12384;48.112;18.418;2022-08-01T10:29:41;10.30;;;9.65;;
24259;SDS011;12384;48.112;18.418;2022-08-01T10:32:34;19.73;;;18.38;;
24259;SDS011;12384;48.112;18.418;2022-08-01T10:35:05;19.50;;;18.10;;
24259;SDS011;12384;48.112;18.418;2022-08-01T10:37:42;19.63;;;18.30;;
24259;SDS011;12384;48.112;18.418;2022-08-01T10:40:18;20.45;;;18.75;;
24259;SDS011;12384;48.112;18.418;2022-08-01T10:42:57;19.65;;;18.20;;
24259;SDS011;12384;48.112;18.418;2022-08-01T10:45:26;20.00;;;18.48;;
24259;SDS011;12384;48.112;18.418;2022-08-01T10:47:59;20.05;;;18.38;;
24259;SDS011;12384;48.112;18.418;2022-08-01T10:50:37;20.05;;;18.42;;
24259;SDS011;12384;48.112;18.418;2022-08-01T10:53:15;20.08;;;18.77;;
24259;SDS011;12384;48.112;18.418;2022-08-01T10:55:51;21.70;;;19.88;;
24259;SDS011;12384;48.112;18.418;2022-08-01T10:58:29;20.80;;;19.35;;
24259;SDS011;12384;48.112;18.418;2022-08-01T11:01:18;20.88;;;19.23;;
24259;SDS011;12384;48.112;18.418;2022-08-01T11:09:41;19.83;;;18.52;;
24259;SDS011;12384;48.112;18.418;2022-08-01T11:12:18;21.63;;;20.15;;
24259;SDS011;12384;48.112;18.418;2022-08-01T11:17:57;20.83;;;19.38;;
24259;SDS011;12384;48.112;18.418;2022-08-01T11:20:27;20.20;;;18.73;;
24259;SDS011;12384;48.112;18.418;2022-08-01T11:26:07;20.38;;;18.95;;
24259;SDS011;12384;48.112;18.418;2022-08-01T11:28:43;20.65;;;19.10;;
24259;SDS011;12384;48.112;18.418;2022-08-01T11:31:34;21.13;;;19.70;;
24259;SDS011;12384;48.112;18.418;2022-08-01T11:34:04;20.75;;;19.23;;
24259;SDS011;12384;48.112;18.418;2022-08-01T11:36:33;18.50;;;17.27;;
24259;SDS011;12384;48.112;18.418;2022-08-01T11:39:22;18.88;;;17.48;;
24259;SDS011;12384;48.112;18.418;2022-08-01T11:41:53;18.52;;;17.20;;
24259;SDS011;12384;48.112;18.418;2022-08-01T11:44:23;18.55;;;17.08;;
24259;SDS011;12384;48.112;18.418;2022-08-01T11:47:00;18.00;;;16.77;;
24259;SDS011;12384;48.112;18.418;2022-08-01T11:52:27;17.23;;;16.05;;
24259;SDS011;12384;48.112;18.418;2022-08-01T11:54:57;16.80;;;15.70;;
24259;SDS011;12384;48.112;18.418;2022-08-01T11:57:38;17.15;;;16.05;;
24259;SDS011;12384;48.112;18.418;2022-08-01T12:00:10;17.40;;;16.08;;
24259;SDS011;12384;48.112;18.418;2022-08-01T12:02:43;16.15;;;15.15;;
24259;SDS011;12384;48.112;18.418;2022-08-01T12:05:14;15.70;;;14.70;;
24259;SDS011;12384;48.112;18.418;2022-08-01T12:07:50;16.95;;;15.75;;
24259;SDS011;12384;48.112;18.418;2022-08-01T12:10:22;15.45;;;14.43;;
24259;SDS011;12384;48.112;18.418;2022-08-01T12:12:54;15.75;;;14.75;;
24259;SDS011;12384;48.112;18.418;2022-08-01T12:15:24;16.73;;;15.70;;
24259;SDS011;12384;48.112;18.418;2022-08-01T12:17:58;25.42;;;16.00;;
24259;SDS011;12384;48.112;18.418;2022-08-01T12:20:28;16.70;;;15.52;;
24259;SDS011;12384;48.112;18.418;2022-08-01T12:22:59;17.02;;;15.77;;
24259;SDS011;12384;48.112;18.418;2022-08-01T12:25:32;16.20;;;15.18;;
24259;SDS011;12384;48.112;18.418;2022-08-01T12:28:03;17.02;;;15.93;;
24259;SDS011;12384;48.112;18.418;2022-08-01T12:30:36;17.05;;;15.85;;
24259;SDS011;12384;48.112;18.418;2022-08-01T12:33:06;16.33;;;15.32;;
24259;SDS011;12384;48.112;18.418;2022-08-01T12:35:37;16.00;;;15.00;;
24259;SDS011;12384;48.112;18.418;2022-08-01T12:38:07;16.80;;;15.50;;
24259;SDS011;12384;48.112;18.418;2022-08-01T12:40:43;16.67;;;15.68;;
24259;SDS011;12384;48.112;18.418;2022-08-01T12:43:22;16.52;;;15.35;;
24259;SDS011;12384;48.112;18.418;2022-08-01T12:45:54;16.52;;;15.43;;
24259;SDS011;12384;48.112;18.418;2022-08-01T12:48:26;16.90;;;15.70;;
24259;SDS011;12384;48.112;18.418;2022-08-01T12:50:55;16.17;;;15.18;;
24259;SDS011;12384;48.112;18.418;2022-08-01T12:53:28;17.55;;;16.23;;
24259;SDS011;12384;48.112;18.418;2022-08-01T12:56:07;16.63;;;15.52;;
24259;SDS011;12384;48.112;18.418;2022-08-01T12:58:39;16.85;;;15.43;;
24259;SDS011;12384;48.112;18.418;2022-08-01T13:01:08;17.55;;;15.93;;
24259;SDS011;12384;48.112;18.418;2022-08-01T13:03:40;15.57;;;14.65;;
24259;SDS011;12384;48.112;18.418;2022-08-01T13:06:11;17.75;;;16.65;;
24259;SDS011;12384;48.112;18.418;2022-08-01T13:08:43;16.80;;;15.68;;
24259;SDS011;12384;48.112;18.418;2022-08-01T13:11:13;17.10;;;15.82;;
24259;SDS011;12384;48.112;18.418;2022-08-01T13:13:45;15.80;;;14.80;;
24259;SDS011;12384;48.112;18.418;2022-08-01T13:16:16;15.73;;;14.80;;
24259;SDS011;12384;48.112;18.418;2022-08-01T13:18:59;16.23;;;14.70;;
24259;SDS011;12384;48.112;18.418;2022-08-01T13:21:29;14.80;;;13.90;;
24259;SDS011;12384;48.112;18.418;2022-08-01T13:24:22;15.50;;;14.40;;
24259;SDS011;12384;48.112;18.418;2022-08-01T13:26:53;15.43;;;14.00;;
24259;SDS011;12384;48.112;18.418;2022-08-01T13:29:32;15.95;;;14.85;;
24259;SDS011;12384;48.112;18.418;2022-08-01T13:32:14;14.95;;;14.02;;
24259;SDS011;12384;48.112;18.418;2022-08-01T13:35:02;16.50;;;15.30;;
24259;SDS011;12384;48.112;18.418;2022-08-01T13:37:31;17.38;;;16.20;;
24259;SDS011;12384;48.112;18.418;2022-08-01T13:40:03;15.18;;;14.27;;
24259;SDS011;12384;48.112;18.418;2022-08-01T13:42:32;16.83;;;15.68;;
24259;SDS011;12384;48.112;18.418;2022-08-01T13:45:03;16.80;;;15.70;;
24259;SDS011;12384;48.112;18.418;2022-08-01T13:47:40;16.40;;;15.30;;
24259;SDS011;12384;48.112;18.418;2022-08-01T13:50:29;17.35;;;16.25;;
24259;SDS011;12384;48.112;18.418;2022-08-01T13:52:58;17.20;;;16.20;;
24259;SDS011;12384;48.112;18.418;2022-08-01T13:55:27;17.95;;;16.85;;
24259;SDS011;12384;48.112;18.418;2022-08-01T13:58:00;18.75;;;17.55;;
24259;SDS011;12384;48.112;18.418;2022-08-01T14:00:31;18.38;;;17.17;;
24259;SDS011;12384;48.112;18.418;2022-08-01T14:02:59;18.20;;;17.00;;
24259;SDS011;12384;48.112;18.418;2022-08-01T14:05:28;18.23;;;17.05;;
24259;SDS011;12384;48.112;18.418;2022-08-01T14:07:58;18.50;;;17.40;;
24259;SDS011;12384;48.112;18.418;2022-08-01T14:10:26;18.08;;;16.98;;
24259;SDS011;12384;48.112;18.418;2022-08-01T14:12:56;18.10;;;16.75;;
24259;SDS011;12384;48.112;18.418;2022-08-01T14:15:27;18.25;;;16.95;;
24259;SDS011;12384;48.112;18.418;2022-08-01T14:18:06;17.20;;;16.02;;
24259;SDS011;12384;48.112;18.418;2022-08-01T14:20:37;17.58;;;16.10;;
24259;SDS011;12384;48.112;18.418;2022-08-01T14:23:06;17.15;;;15.95;;
24259;SDS011;12384;48.112;18.418;2022-08-01T14:25:35;17.92;;;16.73;;
24259;SDS011;12384;48.112;18.418;2022-08-01T14:28:25;17.10;;;16.10;;
24259;SDS011;12384;48.112;18.418;2022-08-01T14:30:55;17.90;;;16.85;;
24259;SDS011;12384;48.112;18.418;2022-08-01T14:33:26;19.00;;;17.80;;
24259;SDS011;12384;48.112;18.418;2022-08-01T14:35:55;18.05;;;16.95;;
24259;SDS011;12384;48.112;18.418;2022-08-01T14:38:32;18.55;;;17.20;;
24259;SDS011;12384;48.112;18.418;2022-08-01T14:41:01;18.77;;;17.50;;
24259;SDS011;12384;48.112;18.418;2022-08-01T14:43:30;18.42;;;17.27;;
24259;SDS011;12384;48.112;18.418;2022-08-01T14:46:00;17.95;;;16.85;;
24259;SDS011;12384;48.112;18.418;2022-08-01T14:48:31;18.65;;;17.30;;
24259;SDS011;12384;48.112;18.418;2022-08-01T14:51:00;17.95;;;16.75;;
24259;SDS011;12384;48.112;18.418;2022-08-01T14:53:30;18.05;;;16.85;;
24259;SDS011;12384;48.112;18.418;2022-08-01T14:56:01;17.38;;;16.38;;
24259;SDS011;12384;48.112;18.418;2022-08-01T14:58:30;17.27;;;16.17;;
24259;SDS011;12384;48.112;18.418;2022-08-01T15:01:00;18.52;;;17.15;;
24259;SDS011;12384;48.112;18.418;2022-08-01T15:03:29;18.45;;;17.05;;